Vaughn, MT (59487)

8:52 AM MDT on August 27, 2016 (GMT -0600)
APRSWXNET | | Change Station

Elev 3412 ft 47.52 °N, 111.68 °W | Updated 32 minutes ago

Mostly Cloudy
Mostly Cloudy
67 °F
Feels Like 67 °F
N
9
Wind Variable Wind from SSW
Gusts 17.0 mph

Today
High -- | Low -- °F
--% Chance of Precip.
Yesterday
High -- | Low -- °F
Precip. -- in
Pressure 29.78 in
Visibility 10.0 miles
Clouds Mostly Cloudy 12000 ft
Dew Point 34 °F
Humidity 29%
Rainfall in
Snow Depth Not available.
6:39 AM 8:15 PM
Waning Crescent, 24% visible
METAR KGTF 271353Z 21013KT 10SM BKN120 18/03 A2984 RMK AO2 SLP082 T01780028
Pressure 29.78 in
Visibility 10.0 miles
Clouds Mostly Cloudy 12000 ft
Dew Point 34 °F
Humidity 29%
Rainfall in
Snow Depth Not available.
6:39 AM 8:15 PM
Waning Crescent, 24% visible
METAR KGTF 271353Z 21013KT 10SM BKN120 18/03 A2984 RMK AO2 SLP082 T01780028

10-Day Weather Forecast

Almanac

Astronomy

Aug. 27, 2016 Rise Set
Actual Time
Civil Twilight
Nautical Twilight
Astronomical Twilight
Moon
Length of Visible Light
Length of Day
Tomorrow will be .
, % of the Moon is Illuminated

Today's Extremes

State Highs State Lows

Community

WunderPhotos

Upload Photos

1,935,344 photos uploaded!

WunderBlog® & News

Nearby

Air Quality

  Air Quality AQ Index Pollutant
Not available.

Snow Depth

Station Depth Elevation

Earthquake Activity

City Distance Mag. Time & Date
Minimum magnitude displayed is 2.5.

Coastal Water Temperatures

Place Temperature

Stations

Nearby Weather Stations

Station Location Temp. Windchill Dew Point Humidity Wind Precip. Elev Updated Type
                   

Watches & Warnings

There are currently no watches in effect.